createdAt,value
2018-12-10T00:01:06.788Z,5.40
2018-12-10T00:03:37.418Z,5.07
2018-12-10T00:06:07.749Z,5.53
2018-12-10T00:08:39.925Z,6.83
2018-12-10T00:11:12.998Z,7.80
2018-12-10T00:13:46.623Z,7.37
2018-12-10T00:16:17.857Z,5.23
2018-12-10T00:18:51.860Z,5.33
2018-12-10T00:21:28.040Z,6.97
2018-12-10T00:26:43.404Z,7.13
2018-12-10T00:29:17.418Z,5.27
2018-12-10T00:31:48.585Z,6.80
2018-12-10T00:34:18.472Z,7.90
2018-12-10T00:36:48.188Z,7.27
2018-12-10T00:39:18.007Z,4.70
2018-12-10T00:41:53.441Z,4.30
2018-12-10T00:44:25.713Z,7.67
2018-12-10T00:46:59.717Z,4.40
2018-12-10T00:49:32.815Z,4.27
2018-12-10T00:52:02.826Z,7.87
2018-12-10T00:54:33.041Z,6.23
2018-12-10T00:57:06.337Z,6.93
2018-12-10T00:59:36.169Z,7.70
2018-12-10T01:02:14.055Z,5.30
2018-12-10T01:04:44.374Z,6.97
2018-12-10T01:07:16.131Z,4.47
2018-12-10T01:09:49.840Z,3.87
2018-12-10T01:12:19.847Z,4.93
2018-12-10T01:14:51.403Z,4.40
2018-12-10T01:17:22.036Z,8.67
2018-12-10T01:19:54.835Z,7.00
2018-12-10T01:22:33.334Z,5.03
2018-12-10T01:25:07.031Z,8.80
2018-12-10T01:27:37.784Z,6.80
2018-12-10T01:30:09.326Z,5.37
2018-12-10T01:32:40.479Z,6.27
2018-12-10T01:35:12.054Z,7.33
2018-12-10T01:37:48.036Z,4.73
2018-12-10T01:42:52.725Z,7.17
2018-12-10T01:45:26.416Z,5.97
2018-12-10T01:47:56.027Z,8.47
2018-12-10T01:50:26.354Z,6.43
2018-12-10T01:53:05.177Z,5.80
2018-12-10T01:55:40.336Z,6.13
2018-12-10T01:58:12.601Z,11.33
2018-12-10T02:00:43.224Z,5.23
2018-12-10T02:03:15.270Z,4.73
2018-12-10T02:05:48.357Z,7.40
2018-12-10T02:08:22.584Z,6.13
2018-12-10T02:10:55.051Z,8.80
2018-12-10T02:13:31.422Z,7.70
2018-12-10T02:16:12.494Z,9.07
2018-12-10T02:42:50.754Z,6.80
2018-12-10T02:45:25.803Z,8.27
2018-12-10T02:47:58.158Z,6.77
2018-12-10T02:50:31.067Z,7.53
2018-12-10T02:53:01.887Z,9.20
2018-12-10T02:55:36.217Z,8.53
2018-12-10T02:58:08.994Z,6.53
2018-12-10T03:00:40.840Z,9.07
2018-12-10T03:03:17.723Z,9.33
2018-12-10T03:05:55.655Z,6.40
2018-12-10T03:08:29.007Z,10.20
2018-12-10T03:10:59.129Z,6.60
2018-12-10T03:13:29.046Z,7.53
2018-12-10T03:16:05.034Z,4.77
2018-12-10T03:18:37.379Z,6.27
2018-12-10T03:21:17.543Z,10.87
2018-12-10T03:23:52.043Z,7.67
2018-12-10T03:26:21.759Z,6.23
2018-12-10T03:28:51.473Z,6.43
2018-12-10T03:31:22.815Z,6.27
2018-12-10T03:33:56.516Z,8.77
2018-12-10T03:36:31.860Z,9.70
2018-12-10T03:39:02.410Z,7.17
2018-12-10T03:41:34.175Z,7.93
2018-12-10T03:44:04.271Z,6.43
2018-12-10T03:46:40.327Z,4.93
2018-12-10T03:49:11.191Z,6.77
2018-12-10T03:51:45.883Z,9.57
2018-12-10T03:54:19.787Z,6.57
2018-12-10T03:56:49.497Z,5.87
2018-12-10T03:59:21.366Z,1.50
2018-12-10T04:04:38.035Z,4.60
2018-12-10T04:07:08.943Z,4.93
2018-12-10T04:09:44.570Z,5.23
2018-12-10T04:12:15.328Z,5.80
2018-12-10T04:14:46.784Z,7.10
2018-12-10T04:17:17.075Z,5.73
2018-12-10T04:19:53.576Z,4.57
2018-12-10T04:22:25.400Z,3.63
2018-12-10T04:24:55.934Z,4.53
2018-12-10T04:27:25.877Z,5.47
2018-12-10T04:30:00.469Z,2.07
2018-12-10T04:32:33.456Z,3.80
2018-12-10T04:35:04.623Z,4.67
2018-12-10T04:37:38.514Z,3.37
2018-12-10T04:40:15.388Z,3.67
2018-12-10T04:42:46.445Z,3.63
2018-12-10T04:45:19.016Z,3.63
2018-12-10T04:47:48.644Z,4.77
2018-12-10T04:50:24.703Z,3.30
2018-12-10T04:52:54.809Z,4.40
2018-12-10T04:55:30.430Z,3.43
2018-12-10T04:58:01.396Z,3.07
2018-12-10T05:00:31.361Z,3.93
2018-12-10T05:03:03.481Z,5.87
2018-12-10T05:05:35.324Z,4.23
2018-12-10T05:08:05.599Z,5.57
2018-12-10T05:10:37.196Z,10.83
2018-12-10T05:13:11.057Z,5.13
2018-12-10T05:15:43.491Z,13.47
2018-12-10T05:18:15.240Z,10.47
2018-12-10T05:20:45.156Z,7.67
2018-12-10T06:30:46.210Z,8.17
2018-12-10T06:33:16.115Z,11.13
2018-12-10T06:35:45.836Z,15.60
2018-12-10T06:38:15.543Z,16.07
2018-12-10T06:40:45.659Z,11.10
2018-12-10T06:43:15.374Z,10.73
2018-12-10T06:45:46.077Z,8.50
2018-12-10T06:48:16.015Z,9.43
2018-12-10T06:50:45.833Z,9.47
2018-12-10T06:53:15.956Z,14.07
2018-12-10T06:55:46.486Z,12.03
2018-12-10T06:58:16.923Z,11.30
2018-12-10T07:00:47.046Z,12.47
2018-12-10T07:03:17.671Z,18.97
2018-12-10T07:05:47.891Z,14.10
2018-12-10T07:08:18.304Z,13.93
2018-12-10T07:10:48.851Z,15.03
2018-12-10T07:13:19.293Z,16.40
2018-12-10T07:15:50.063Z,12.80
2018-12-10T07:18:20.223Z,13.50
2018-12-10T07:20:50.118Z,11.03
2018-12-10T07:23:20.554Z,13.20
2018-12-10T07:44:34.929Z,22.53
2018-12-10T07:47:04.834Z,15.10
2018-12-10T07:49:34.865Z,16.67
2018-12-10T07:52:04.560Z,14.83
2018-12-10T07:54:34.474Z,13.87
2018-12-10T07:57:04.593Z,16.83
2018-12-10T07:59:35.040Z,17.67
2018-12-10T08:02:04.932Z,14.40
2018-12-10T08:04:34.959Z,14.43
2018-12-10T08:07:04.978Z,14.40
2018-12-10T08:09:34.989Z,10.67
2018-12-10T08:12:05.531Z,11.60
2018-12-10T08:14:36.151Z,11.27
2018-12-10T08:17:06.370Z,11.80
2018-12-10T08:19:36.399Z,11.23
2018-12-10T08:22:06.300Z,11.13
2018-12-10T08:24:36.420Z,10.27
2018-12-10T08:27:09.643Z,14.17
2018-12-10T08:29:38.695Z,11.00
2018-12-10T08:32:09.119Z,9.30
2018-12-10T08:34:41.457Z,15.07
2018-12-10T08:37:11.938Z,13.27
2018-12-10T08:39:43.699Z,12.47
2018-12-10T08:42:14.939Z,11.23
2018-12-10T08:44:45.057Z,11.83
2018-12-10T08:47:16.180Z,8.90
2018-12-10T08:49:46.947Z,9.23
2018-12-10T08:52:16.849Z,14.83
2018-12-10T08:54:47.288Z,12.63
2018-12-10T08:57:17.507Z,16.10
2018-12-10T08:59:48.043Z,8.53
2018-12-10T09:02:18.982Z,13.63
2018-12-10T09:04:49.176Z,14.97
2018-12-10T09:07:19.486Z,11.03
2018-12-10T09:09:49.093Z,9.50
2018-12-10T09:12:19.737Z,11.53
2018-12-10T09:14:49.857Z,14.00
2018-12-10T09:17:19.976Z,9.17
2018-12-10T09:19:49.905Z,11.03
2018-12-10T09:22:20.017Z,11.97
2018-12-10T09:24:50.446Z,11.57
2018-12-10T09:45:27.426Z,9.90
2018-12-10T09:47:57.437Z,7.87
2018-12-10T09:50:28.695Z,12.97
2018-12-10T09:53:01.377Z,11.90
2018-12-10T09:55:32.508Z,7.20
2018-12-10T09:58:03.056Z,11.03
2018-12-10T10:00:34.389Z,7.47
2018-12-10T10:03:04.816Z,11.93
2018-12-10T10:05:38.306Z,13.63
2018-12-10T10:08:09.457Z,6.93
2018-12-10T10:10:41.017Z,9.97
2018-12-10T10:13:11.236Z,9.10
2018-12-10T10:15:41.346Z,8.03
2018-12-10T10:18:13.058Z,7.37
2018-12-10T10:39:27.282Z,10.07
2018-12-10T10:41:57.489Z,14.13
2018-12-10T10:44:28.957Z,13.53
2018-12-10T10:46:58.867Z,14.30
2018-12-10T10:49:28.967Z,17.20
2018-12-10T10:51:59.077Z,11.73
2018-12-10T10:54:29.825Z,20.90
2018-12-10T10:57:00.255Z,11.47
2018-12-10T10:59:30.386Z,13.57
2018-12-10T11:02:04.206Z,11.90
2018-12-10T11:04:37.613Z,18.67
2018-12-10T11:07:06.050Z,19.67
2018-12-10T11:09:36.285Z,13.60
2018-12-10T11:12:07.031Z,13.27
2018-12-10T11:14:36.811Z,13.73
2018-12-10T11:17:07.157Z,10.77
2018-12-10T11:19:37.276Z,9.73
2018-12-10T11:22:07.270Z,12.47
2018-12-10T11:24:37.196Z,13.97
2018-12-10T11:27:07.216Z,11.60
2018-12-10T11:29:40.417Z,14.67
2018-12-10T11:32:10.627Z,12.53
2018-12-10T11:34:40.536Z,9.10
2018-12-10T11:37:10.556Z,9.27
2018-12-10T11:39:40.778Z,10.83
2018-12-10T11:42:10.797Z,13.10
2018-12-10T11:44:41.217Z,10.63
2018-12-10T11:47:13.201Z,11.53
2018-12-10T11:49:44.425Z,9.97
2018-12-10T11:52:15.357Z,13.67
2018-12-10T11:54:48.461Z,11.50
2018-12-10T11:57:22.356Z,9.10
2018-12-10T11:59:53.918Z,12.13
2018-12-10T12:02:29.746Z,15.90
2018-12-10T12:04:55.886Z,7.80
2018-12-10T12:07:26.090Z,8.40
2018-12-10T12:09:56.238Z,9.00
2018-12-10T12:12:27.284Z,9.50
2018-12-10T12:14:57.626Z,13.57
2018-12-10T12:17:27.817Z,9.37
2018-12-10T12:19:57.937Z,8.83
2018-12-10T12:22:28.047Z,11.87
2018-12-10T12:24:58.597Z,12.00
2018-12-10T12:27:29.316Z,8.17
2018-12-10T12:30:00.156Z,12.60
2018-12-10T12:32:30.165Z,9.10
2018-12-10T12:35:00.487Z,10.50
2018-12-10T12:37:30.623Z,10.53
2018-12-10T12:40:01.027Z,8.43
2018-12-10T12:42:31.475Z,7.50
2018-12-10T12:45:01.897Z,7.37
2018-12-10T12:47:32.105Z,8.97
2018-12-10T12:50:02.437Z,7.87
2018-12-10T12:52:32.862Z,8.73
2018-12-10T12:55:02.864Z,9.63
2018-12-10T12:57:32.786Z,10.83
2018-12-10T13:00:02.896Z,14.10
2018-12-10T13:02:32.914Z,14.30
2018-12-10T13:05:02.737Z,13.87
2018-12-10T13:07:33.185Z,9.77
2018-12-10T13:10:03.399Z,10.07
2018-12-10T13:12:32.978Z,14.87
2018-12-10T13:15:02.916Z,11.10
2018-12-10T13:17:32.910Z,8.13
2018-12-10T13:38:45.945Z,20.33
2018-12-10T13:41:15.973Z,19.10
2018-12-10T13:43:46.000Z,17.00
2018-12-10T13:46:15.905Z,18.97
2018-12-10T13:48:45.945Z,20.80
2018-12-10T13:51:15.836Z,14.40
2018-12-10T13:53:45.954Z,10.57
2018-12-10T13:56:15.935Z,9.17
2018-12-10T13:58:45.894Z,12.70
2018-12-10T14:01:16.014Z,13.90
2018-12-10T14:03:46.326Z,21.07
2018-12-10T14:06:16.444Z,22.87
2018-12-10T14:08:46.564Z,22.13
2018-12-10T14:11:16.676Z,22.40
2018-12-10T14:13:46.493Z,22.27
2018-12-10T14:16:16.945Z,14.40
2018-12-10T14:18:46.756Z,24.70
2018-12-10T14:21:16.957Z,17.77
2018-12-10T14:23:46.657Z,22.20
2018-12-10T14:26:17.511Z,19.07
2018-12-10T14:28:47.925Z,20.70
2018-12-10T14:31:27.339Z,15.07
2018-12-10T14:33:58.010Z,14.90
2018-12-10T14:36:27.694Z,16.50
2018-12-10T14:38:57.410Z,16.70
2018-12-10T14:41:27.426Z,14.70
2018-12-10T14:43:57.858Z,18.10
2018-12-10T14:46:28.887Z,17.77
2018-12-10T14:49:00.048Z,18.23
2018-12-10T14:51:31.308Z,15.77
2018-12-10T14:54:02.031Z,20.67
2018-12-10T14:56:32.351Z,21.47
2018-12-10T14:59:03.057Z,20.03
2018-12-10T15:01:33.194Z,15.77
2018-12-10T15:04:03.420Z,15.50
2018-12-10T15:06:33.433Z,15.90
2018-12-10T16:14:39.522Z,28.77
2018-12-10T16:17:09.928Z,15.63
2018-12-10T16:19:40.257Z,18.10
2018-12-10T16:22:10.382Z,21.57
2018-12-10T16:24:40.602Z,17.17
2018-12-10T16:27:10.942Z,14.93
2018-12-10T16:29:49.442Z,16.80
2018-12-10T16:32:34.811Z,29.07
2018-12-10T16:35:05.461Z,13.00
2018-12-10T16:37:35.681Z,18.43
2018-12-10T16:40:07.021Z,16.43
2018-12-10T16:42:36.950Z,16.80
2018-12-10T16:45:07.252Z,16.70
2018-12-10T16:47:45.682Z,21.77
2018-12-10T16:50:16.308Z,15.93
2018-12-10T16:52:46.413Z,19.93
2018-12-10T16:55:16.862Z,16.60
2018-12-10T16:57:46.441Z,22.80
2018-12-10T17:00:16.152Z,16.83
2018-12-10T17:02:46.181Z,14.27
2018-12-10T17:05:16.079Z,15.93
2018-12-10T17:07:46.424Z,14.83
2018-12-10T17:10:17.061Z,19.40
2018-12-10T17:12:46.842Z,16.47
2018-12-10T17:15:17.062Z,16.43
2018-12-10T17:17:47.311Z,16.67
2018-12-10T17:20:17.507Z,22.63
2018-12-10T17:22:47.961Z,18.73
2018-12-10T17:25:18.881Z,17.27
2018-12-10T17:27:48.685Z,15.60
2018-12-10T17:30:18.923Z,17.40
2018-12-10T17:32:49.241Z,15.83
2018-12-10T17:35:19.982Z,14.07
2018-12-10T17:37:50.203Z,17.27
2018-12-10T17:40:20.412Z,19.93
2018-12-10T17:42:50.222Z,13.47
2018-12-10T17:45:20.441Z,21.90
2018-12-10T17:47:50.562Z,16.77
2018-12-10T17:50:21.002Z,22.57
2018-12-10T17:52:51.222Z,12.80
2018-12-10T17:55:21.113Z,18.30
2018-12-10T17:57:51.062Z,15.00
2018-12-10T18:00:21.162Z,17.50
2018-12-10T18:02:51.175Z,30.57
2018-12-10T18:05:21.823Z,18.77
2018-12-10T18:07:54.990Z,14.00
2018-12-10T18:10:25.012Z,16.50
2018-12-10T18:12:54.825Z,15.17
2018-12-10T18:34:13.392Z,20.93
2018-12-10T18:36:44.246Z,16.40
2018-12-10T18:39:15.901Z,19.67
2018-12-10T18:41:46.538Z,19.47
2018-12-10T18:44:17.283Z,20.63
2018-12-10T18:46:47.380Z,23.77
2018-12-10T18:49:18.038Z,19.30
2018-12-10T18:51:48.037Z,20.87
2018-12-10T18:54:17.941Z,22.20
2018-12-10T18:56:50.910Z,18.33
2018-12-10T18:59:22.882Z,17.33
2018-12-10T19:01:53.008Z,19.07
2018-12-10T19:04:25.970Z,15.83
2018-12-10T19:06:56.942Z,23.20
2018-12-10T19:09:27.447Z,11.73
2018-12-10T19:12:01.047Z,17.37
2018-12-10T19:14:33.035Z,17.83
2018-12-10T19:17:05.017Z,13.70
2018-12-10T19:19:36.115Z,17.03
2018-12-10T19:22:06.471Z,15.63
2018-12-10T19:24:38.515Z,14.27
2018-12-10T19:27:09.038Z,16.00
2018-12-10T19:29:39.499Z,14.40
2018-12-10T19:32:10.016Z,29.17
2018-12-10T19:34:41.239Z,33.37
2018-12-10T19:37:13.306Z,29.10
2018-12-10T19:39:44.460Z,23.67
2018-12-10T19:42:16.324Z,25.10
2018-12-10T20:01:39.057Z,14.67
2018-12-10T20:04:10.306Z,17.63
2018-12-10T20:06:44.637Z,13.77
2018-12-10T20:09:15.453Z,15.53
2018-12-10T20:11:45.995Z,19.37
2018-12-10T20:14:15.897Z,21.73
2018-12-10T20:16:46.227Z,18.93
2018-12-10T20:19:16.346Z,16.50
2018-12-10T20:21:46.767Z,18.53
2018-12-10T20:24:20.047Z,17.27
2018-12-10T20:26:49.887Z,18.57
2018-12-10T20:29:22.674Z,17.57
2018-12-10T20:31:53.011Z,27.47
2018-12-10T20:34:24.455Z,26.43
2018-12-10T20:36:55.354Z,22.27
2018-12-10T20:39:26.213Z,22.43
2018-12-10T20:42:00.016Z,21.90
2018-12-10T20:44:30.322Z,20.00
2018-12-10T20:47:01.068Z,29.77
2018-12-10T20:49:35.423Z,25.03
2018-12-10T20:52:06.813Z,25.27
2018-12-10T20:54:39.037Z,17.87
2018-12-10T20:57:09.405Z,25.07
2018-12-10T20:59:43.355Z,20.73
2018-12-10T21:02:14.376Z,21.07
2018-12-10T21:04:46.547Z,17.80
2018-12-10T21:07:17.570Z,22.80
2018-12-10T21:09:49.023Z,24.40
2018-12-10T21:12:19.852Z,22.00
2018-12-10T21:14:49.981Z,26.13
2018-12-10T21:17:20.823Z,26.50
2018-12-10T21:19:50.957Z,27.17
2018-12-10T21:22:20.957Z,25.10
2018-12-10T21:24:54.754Z,27.60
2018-12-10T21:27:25.041Z,21.47
2018-12-10T21:29:55.416Z,27.20
2018-12-10T21:32:25.034Z,19.83
2018-12-10T21:34:54.720Z,18.13
2018-12-10T21:37:24.533Z,29.13
2018-12-10T21:39:54.675Z,21.90
2018-12-10T21:42:25.772Z,21.63
2018-12-10T21:44:56.414Z,18.10
2018-12-10T21:47:26.657Z,21.93
2018-12-10T21:49:57.056Z,19.83
2018-12-10T21:52:27.494Z,20.80
2018-12-10T21:54:57.916Z,16.33
2018-12-10T21:57:29.893Z,17.93
2018-12-10T22:00:00.097Z,19.97
2018-12-10T22:02:31.046Z,18.90
2018-12-10T22:05:01.055Z,16.67
2018-12-10T22:07:31.280Z,18.77
2018-12-10T22:10:01.073Z,16.17
2018-12-10T22:12:31.642Z,17.93
2018-12-10T22:15:01.657Z,21.57
2018-12-10T22:17:32.190Z,14.83
2018-12-10T22:20:02.487Z,16.13
2018-12-10T22:22:32.517Z,19.17
2018-12-10T22:25:02.708Z,20.50
2018-12-10T22:27:32.855Z,16.37
2018-12-10T22:30:03.064Z,18.70
2018-12-10T22:32:33.295Z,15.03
2018-12-10T22:35:04.016Z,19.80
2018-12-10T22:37:34.054Z,22.57
2018-12-10T22:40:04.576Z,22.07
2018-12-10T22:42:35.015Z,17.63
2018-12-10T22:45:05.415Z,20.53
2018-12-10T22:47:36.371Z,20.53
2018-12-10T22:50:07.414Z,16.63
2018-12-10T22:52:38.029Z,17.33
2018-12-10T22:55:08.062Z,20.20
2018-12-10T22:57:38.263Z,14.93
2018-12-10T23:00:09.324Z,18.60
2018-12-10T23:02:39.240Z,15.17
2018-12-10T23:05:09.248Z,14.63
2018-12-10T23:07:39.768Z,17.03
2018-12-10T23:28:54.443Z,12.87
2018-12-10T23:31:24.166Z,18.20
2018-12-10T23:33:55.008Z,19.43
2018-12-10T23:36:24.803Z,21.57
2018-12-10T23:38:55.034Z,13.57
2018-12-10T23:41:24.941Z,12.63
2018-12-10T23:43:54.979Z,12.50
2018-12-10T23:46:25.371Z,11.93
2018-12-10T23:48:55.797Z,13.67
2018-12-10T23:51:25.816Z,17.87
2018-12-10T23:53:55.973Z,19.30
2018-12-10T23:56:26.672Z,14.17
2018-12-10T23:58:56.598Z,13.47
